createdAt,value
2019-02-16T00:01:34.661Z,69.53
2019-02-16T00:11:40.258Z,68.67
2019-02-16T00:21:45.990Z,65.17
2019-02-16T00:31:51.538Z,67.50
2019-02-16T00:41:57.190Z,68.23
2019-02-16T00:52:02.707Z,65.17
2019-02-16T01:02:08.341Z,63.57
2019-02-16T01:12:14.160Z,69.47
2019-02-16T01:22:19.824Z,68.67
2019-02-16T01:32:25.328Z,64.20
2019-02-16T01:42:30.964Z,67.57
2019-02-16T01:52:36.600Z,62.97
2019-02-16T02:02:42.074Z,60.87
2019-02-16T02:12:47.623Z,62.37
2019-02-16T02:22:53.230Z,59.60
2019-02-16T02:32:59.936Z,59.80
2019-02-16T02:43:05.638Z,69.67
2019-02-16T02:53:12.375Z,71.33
2019-02-16T03:03:17.876Z,63.50
2019-02-16T03:13:23.403Z,58.63
2019-02-16T03:23:29.373Z,61.97
2019-02-16T03:33:37.922Z,59.17
2019-02-16T03:43:43.579Z,56.43
2019-02-16T03:53:49.282Z,59.03
2019-02-16T04:04:00.814Z,60.07
2019-02-16T04:14:06.435Z,62.20
2019-02-16T04:24:11.960Z,59.57
2019-02-16T04:34:17.656Z,58.43
2019-02-16T04:44:23.259Z,62.43
2019-02-16T04:54:40.769Z,62.57
2019-02-16T05:04:46.370Z,62.93
2019-02-16T05:14:52.101Z,69.40
2019-02-16T05:24:57.818Z,68.73
2019-02-16T05:35:03.401Z,64.63
2019-02-16T05:45:09.805Z,62.37
2019-02-16T05:55:15.340Z,61.27
2019-02-16T06:05:24.707Z,65.63
2019-02-16T06:15:31.426Z,66.20
2019-02-16T06:25:37.018Z,66.40
2019-02-16T06:35:47.208Z,68.37
2019-02-16T06:45:52.814Z,68.90
2019-02-16T06:55:59.861Z,63.23
2019-02-16T07:06:05.447Z,66.60
2019-02-16T07:16:29.312Z,62.03
2019-02-16T07:26:37.120Z,57.87
2019-02-16T07:36:42.700Z,57.40
2019-02-16T07:46:53.519Z,64.27
2019-02-16T07:57:01.119Z,52.27
2019-02-16T08:07:24.081Z,46.00
2019-02-16T08:17:40.845Z,49.63
2019-02-16T08:27:47.906Z,49.50
2019-02-16T08:37:58.053Z,45.33
2019-02-16T08:48:07.978Z,41.23
2019-02-16T08:58:30.709Z,42.57
2019-02-16T09:08:47.034Z,42.17
2019-02-16T09:18:57.020Z,40.47
2019-02-16T09:29:09.992Z,39.90
2019-02-16T09:39:17.127Z,37.63
2019-02-16T09:49:24.227Z,38.30
2019-02-16T09:59:31.513Z,36.67
2019-02-16T10:09:38.803Z,33.77
2019-02-16T10:19:47.152Z,28.33
2019-02-16T10:29:54.357Z,25.57
2019-02-16T10:40:04.545Z,22.07
2019-02-16T10:50:20.946Z,23.30
2019-02-16T11:00:28.160Z,21.23
2019-02-16T11:10:38.419Z,19.63
2019-02-16T11:20:52.712Z,17.33
2019-02-16T11:31:09.054Z,17.27
2019-02-16T11:41:25.264Z,17.90
2019-02-16T11:51:44.217Z,17.93
2019-02-16T12:01:54.611Z,19.03
2019-02-16T12:12:10.914Z,16.73
2019-02-16T12:22:18.034Z,17.67
2019-02-16T12:32:32.545Z,13.43
2019-02-16T12:42:42.309Z,13.50
2019-02-16T12:53:05.474Z,12.47
2019-02-16T13:03:24.756Z,14.47
2019-02-16T13:13:31.957Z,13.23
2019-02-16T13:23:48.211Z,13.13
2019-02-16T13:33:55.417Z,13.80
2019-02-16T13:44:05.411Z,13.03
2019-02-16T13:54:24.289Z,11.00
2019-02-16T14:04:49.109Z,13.20
2019-02-16T14:15:11.830Z,16.63
2019-02-16T14:25:18.533Z,14.00
2019-02-16T14:35:23.692Z,16.73
2019-02-16T14:45:29.858Z,18.33
2019-02-16T14:55:36.852Z,18.53
2019-02-16T15:05:42.207Z,16.17
2019-02-16T15:15:47.843Z,17.17
2019-02-16T15:26:00.727Z,19.17
2019-02-16T15:36:06.813Z,16.07
2019-02-16T15:46:12.349Z,21.07
2019-02-16T15:56:18.119Z,17.47
2019-02-16T16:06:24.106Z,21.30
2019-02-16T16:16:43.752Z,22.10
2019-02-16T16:26:50.907Z,25.30
2019-02-16T16:37:09.314Z,26.13
2019-02-16T16:47:23.058Z,28.87
2019-02-16T17:08:06.997Z,27.93
2019-02-16T17:18:23.289Z,27.70
2019-02-16T17:28:52.388Z,27.03
2019-02-16T17:39:02.475Z,26.30
2019-02-16T17:49:11.096Z,24.07
2019-02-16T17:59:18.761Z,23.07
2019-02-16T18:09:32.112Z,25.33
2019-02-16T18:19:54.993Z,25.67
2019-02-16T18:30:03.201Z,26.70
2019-02-16T18:40:22.301Z,28.85
2019-02-16T18:50:38.409Z,31.17
2019-02-16T19:00:45.792Z,32.33
2019-02-16T19:10:53.274Z,33.30
2019-02-16T19:21:03.325Z,32.80
2019-02-16T19:31:10.841Z,35.47
2019-02-16T19:41:24.328Z,37.33
2019-02-16T19:51:31.767Z,38.73
2019-02-16T20:01:48.473Z,40.40
2019-02-16T20:11:58.712Z,40.73
2019-02-16T20:22:09.357Z,38.77
2019-02-16T20:32:16.838Z,38.13
2019-02-16T20:42:24.411Z,37.53
2019-02-16T20:52:48.053Z,38.17
2019-02-16T21:03:17.309Z,38.60
2019-02-16T21:13:24.860Z,36.87
2019-02-16T21:23:52.672Z,36.67
2019-02-16T21:34:02.731Z,34.77
2019-02-16T21:44:28.348Z,30.30
2019-02-16T21:54:48.522Z,31.80
2019-02-16T22:04:58.959Z,28.73
2019-02-16T22:15:05.842Z,27.07
2019-02-16T22:25:11.654Z,27.87
2019-02-16T22:35:17.348Z,25.10
2019-02-16T22:45:23.573Z,25.30
2019-02-16T22:55:29.478Z,23.13
2019-02-16T23:05:35.078Z,23.27
2019-02-16T23:15:40.687Z,23.60
2019-02-16T23:25:46.496Z,23.10
2019-02-16T23:35:52.090Z,22.10
2019-02-16T23:46:00.146Z,21.97
2019-02-16T23:56:05.899Z,21.33
